sensor_id;sensor_type;location;lat;lon;timestamp;P1;durP1;ratioP1;P2;durP2;ratioP2
72261;SDS011;60173;52.112;8.648;2023-07-08T00:01:07;3.90;;;2.72;;
72261;SDS011;60173;52.112;8.648;2023-07-08T00:03:36;5.32;;;2.97;;
72261;SDS011;60173;52.112;8.648;2023-07-08T00:06:02;7.10;;;2.88;;
72261;SDS011;60173;52.112;8.648;2023-07-08T00:08:29;5.07;;;2.53;;
72261;SDS011;60173;52.112;8.648;2023-07-08T00:10:55;4.78;;;2.63;;
72261;SDS011;60173;52.112;8.648;2023-07-08T00:13:22;3.92;;;2.60;;
72261;SDS011;60173;52.112;8.648;2023-07-08T00:15:48;5.00;;;2.75;;
72261;SDS011;60173;52.112;8.648;2023-07-08T00:18:16;4.80;;;2.38;;
72261;SDS011;60173;52.112;8.648;2023-07-08T00:20:44;3.67;;;2.40;;
72261;SDS011;60173;52.112;8.648;2023-07-08T00:23:16;4.85;;;2.47;;
72261;SDS011;60173;52.112;8.648;2023-07-08T00:25:43;5.70;;;2.97;;
72261;SDS011;60173;52.112;8.648;2023-07-08T00:28:10;6.03;;;2.95;;
72261;SDS011;60173;52.112;8.648;2023-07-08T00:30:40;3.97;;;2.60;;
72261;SDS011;60173;52.112;8.648;2023-07-08T00:33:06;6.95;;;2.95;;
72261;SDS011;60173;52.112;8.648;2023-07-08T00:35:37;4.07;;;3.00;;
72261;SDS011;60173;52.112;8.648;2023-07-08T00:40:50;4.28;;;2.67;;
72261;SDS011;60173;52.112;8.648;2023-07-08T00:43:36;4.88;;;2.72;;
72261;SDS011;60173;52.112;8.648;2023-07-08T00:46:16;3.15;;;2.80;;
72261;SDS011;60173;52.112;8.648;2023-07-08T00:48:44;4.28;;;2.60;;
72261;SDS011;60173;52.112;8.648;2023-07-08T00:51:12;8.40;;;2.67;;
72261;SDS011;60173;52.112;8.648;2023-07-08T00:53:38;8.57;;;3.13;;
72261;SDS011;60173;52.112;8.648;2023-07-08T00:56:12;5.68;;;3.03;;
72261;SDS011;60173;52.112;8.648;2023-07-08T00:58:54;3.13;;;2.42;;
72261;SDS011;60173;52.112;8.648;2023-07-08T01:01:25;3.97;;;2.70;;
72261;SDS011;60173;52.112;8.648;2023-07-08T01:03:54;4.70;;;2.70;;
72261;SDS011;60173;52.112;8.648;2023-07-08T01:06:33;5.55;;;2.92;;
72261;SDS011;60173;52.112;8.648;2023-07-08T01:09:02;4.43;;;3.00;;
72261;SDS011;60173;52.112;8.648;2023-07-08T01:11:29;5.13;;;2.92;;
72261;SDS011;60173;52.112;8.648;2023-07-08T01:13:56;4.07;;;3.30;;
72261;SDS011;60173;52.112;8.648;2023-07-08T01:16:26;5.60;;;2.78;;
72261;SDS011;60173;52.112;8.648;2023-07-08T01:18:52;6.07;;;3.20;;
72261;SDS011;60173;52.112;8.648;2023-07-08T01:21:35;3.53;;;2.55;;
72261;SDS011;60173;52.112;8.648;2023-07-08T01:24:05;3.33;;;2.58;;
72261;SDS011;60173;52.112;8.648;2023-07-08T01:26:34;4.88;;;3.35;;
72261;SDS011;60173;52.112;8.648;2023-07-08T01:29:04;3.83;;;3.05;;
72261;SDS011;60173;52.112;8.648;2023-07-08T01:31:31;7.20;;;2.97;;
72261;SDS011;60173;52.112;8.648;2023-07-08T01:33:58;3.25;;;2.60;;
72261;SDS011;60173;52.112;8.648;2023-07-08T01:36:25;6.43;;;2.80;;
72261;SDS011;60173;52.112;8.648;2023-07-08T01:38:55;6.75;;;2.97;;
72261;SDS011;60173;52.112;8.648;2023-07-08T01:41:22;3.90;;;2.90;;
72261;SDS011;60173;52.112;8.648;2023-07-08T01:43:48;5.97;;;2.90;;
72261;SDS011;60173;52.112;8.648;2023-07-08T01:46:19;4.15;;;3.10;;
72261;SDS011;60173;52.112;8.648;2023-07-08T01:48:50;4.43;;;2.78;;
72261;SDS011;60173;52.112;8.648;2023-07-08T01:51:19;4.47;;;3.10;;
72261;SDS011;60173;52.112;8.648;2023-07-08T01:53:46;4.57;;;3.03;;
72261;SDS011;60173;52.112;8.648;2023-07-08T01:56:13;3.78;;;2.78;;
72261;SDS011;60173;52.112;8.648;2023-07-08T01:58:40;4.43;;;2.83;;
72261;SDS011;60173;52.112;8.648;2023-07-08T02:01:07;4.63;;;2.80;;
72261;SDS011;60173;52.112;8.648;2023-07-08T02:03:34;7.20;;;3.50;;
72261;SDS011;60173;52.112;8.648;2023-07-08T02:06:01;4.70;;;3.22;;
72261;SDS011;60173;52.112;8.648;2023-07-08T02:08:28;6.03;;;2.97;;
72261;SDS011;60173;52.112;8.648;2023-07-08T02:10:55;4.53;;;2.95;;
72261;SDS011;60173;52.112;8.648;2023-07-08T02:13:24;4.65;;;3.33;;
72261;SDS011;60173;52.112;8.648;2023-07-08T02:15:51;4.45;;;3.20;;
72261;SDS011;60173;52.112;8.648;2023-07-08T02:18:17;4.45;;;2.90;;
72261;SDS011;60173;52.112;8.648;2023-07-08T02:20:44;5.35;;;3.00;;
72261;SDS011;60173;52.112;8.648;2023-07-08T02:23:12;4.80;;;2.80;;
72261;SDS011;60173;52.112;8.648;2023-07-08T02:25:39;5.18;;;3.22;;
72261;SDS011;60173;52.112;8.648;2023-07-08T02:28:06;5.85;;;2.65;;
72261;SDS011;60173;52.112;8.648;2023-07-08T02:30:32;4.10;;;2.92;;
72261;SDS011;60173;52.112;8.648;2023-07-08T02:32:59;4.03;;;3.00;;
72261;SDS011;60173;52.112;8.648;2023-07-08T02:35:26;4.72;;;3.28;;
72261;SDS011;60173;52.112;8.648;2023-07-08T02:37:54;5.18;;;3.47;;
72261;SDS011;60173;52.112;8.648;2023-07-08T02:40:22;4.90;;;3.20;;
72261;SDS011;60173;52.112;8.648;2023-07-08T02:42:49;3.92;;;2.90;;
72261;SDS011;60173;52.112;8.648;2023-07-08T02:45:16;4.55;;;3.25;;
72261;SDS011;60173;52.112;8.648;2023-07-08T02:47:43;4.70;;;3.20;;
72261;SDS011;60173;52.112;8.648;2023-07-08T02:50:10;4.22;;;2.85;;
72261;SDS011;60173;52.112;8.648;2023-07-08T02:52:37;3.90;;;3.03;;
72261;SDS011;60173;52.112;8.648;2023-07-08T02:55:04;5.70;;;3.47;;
72261;SDS011;60173;52.112;8.648;2023-07-08T02:57:31;6.45;;;3.22;;
72261;SDS011;60173;52.112;8.648;2023-07-08T02:59:57;6.40;;;3.67;;
72261;SDS011;60173;52.112;8.648;2023-07-08T03:02:24;4.30;;;3.45;;
72261;SDS011;60173;52.112;8.648;2023-07-08T03:04:52;6.72;;;3.58;;
72261;SDS011;60173;52.112;8.648;2023-07-08T03:07:19;4.80;;;3.38;;
72261;SDS011;60173;52.112;8.648;2023-07-08T03:09:45;7.15;;;3.78;;
72261;SDS011;60173;52.112;8.648;2023-07-08T03:12:12;6.55;;;3.28;;
72261;SDS011;60173;52.112;8.648;2023-07-08T03:14:38;5.03;;;3.40;;
72261;SDS011;60173;52.112;8.648;2023-07-08T03:17:04;5.07;;;3.45;;
72261;SDS011;60173;52.112;8.648;2023-07-08T03:19:31;6.25;;;3.42;;
72261;SDS011;60173;52.112;8.648;2023-07-08T03:21:57;7.15;;;3.88;;
72261;SDS011;60173;52.112;8.648;2023-07-08T03:24:24;4.30;;;3.60;;
72261;SDS011;60173;52.112;8.648;2023-07-08T03:26:50;6.93;;;3.70;;
72261;SDS011;60173;52.112;8.648;2023-07-08T03:29:18;5.55;;;3.55;;
72261;SDS011;60173;52.112;8.648;2023-07-08T03:31:45;5.75;;;3.85;;
72261;SDS011;60173;52.112;8.648;2023-07-08T03:34:12;6.07;;;4.07;;
72261;SDS011;60173;52.112;8.648;2023-07-08T03:36:40;6.07;;;4.00;;
72261;SDS011;60173;52.112;8.648;2023-07-08T03:39:09;7.45;;;3.70;;
72261;SDS011;60173;52.112;8.648;2023-07-08T03:41:36;7.75;;;3.90;;
72261;SDS011;60173;52.112;8.648;2023-07-08T03:44:02;8.30;;;4.13;;
72261;SDS011;60173;52.112;8.648;2023-07-08T03:46:29;7.75;;;3.85;;
72261;SDS011;60173;52.112;8.648;2023-07-08T03:48:55;5.22;;;3.80;;
72261;SDS011;60173;52.112;8.648;2023-07-08T03:51:22;4.88;;;3.47;;
72261;SDS011;60173;52.112;8.648;2023-07-08T03:53:52;7.70;;;4.20;;
72261;SDS011;60173;52.112;8.648;2023-07-08T03:56:18;6.07;;;4.18;;
72261;SDS011;60173;52.112;8.648;2023-07-08T03:58:45;6.57;;;3.75;;
72261;SDS011;60173;52.112;8.648;2023-07-08T04:01:15;5.88;;;3.50;;
72261;SDS011;60173;52.112;8.648;2023-07-08T04:03:43;8.15;;;4.00;;
72261;SDS011;60173;52.112;8.648;2023-07-08T04:06:10;5.68;;;4.00;;
72261;SDS011;60173;52.112;8.648;2023-07-08T04:08:37;5.40;;;3.78;;
72261;SDS011;60173;52.112;8.648;2023-07-08T04:11:03;7.50;;;3.92;;
72261;SDS011;60173;52.112;8.648;2023-07-08T04:13:29;4.63;;;3.78;;
72261;SDS011;60173;52.112;8.648;2023-07-08T04:15:57;7.57;;;3.72;;
72261;SDS011;60173;52.112;8.648;2023-07-08T04:18:27;6.25;;;3.88;;
72261;SDS011;60173;52.112;8.648;2023-07-08T04:20:54;5.80;;;3.70;;
72261;SDS011;60173;52.112;8.648;2023-07-08T04:23:23;4.10;;;3.13;;
72261;SDS011;60173;52.112;8.648;2023-07-08T04:25:50;4.97;;;3.35;;
72261;SDS011;60173;52.112;8.648;2023-07-08T04:28:19;7.78;;;3.72;;
72261;SDS011;60173;52.112;8.648;2023-07-08T04:30:47;7.78;;;3.75;;
72261;SDS011;60173;52.112;8.648;2023-07-08T04:33:14;6.90;;;3.97;;
72261;SDS011;60173;52.112;8.648;2023-07-08T04:35:41;6.13;;;3.83;;
72261;SDS011;60173;52.112;8.648;2023-07-08T04:38:19;5.70;;;3.85;;
72261;SDS011;60173;52.112;8.648;2023-07-08T04:40:50;5.75;;;3.50;;
72261;SDS011;60173;52.112;8.648;2023-07-08T04:43:18;9.32;;;3.40;;
72261;SDS011;60173;52.112;8.648;2023-07-08T04:45:47;5.15;;;3.15;;
72261;SDS011;60173;52.112;8.648;2023-07-08T04:48:16;4.90;;;3.58;;
72261;SDS011;60173;52.112;8.648;2023-07-08T04:50:44;8.15;;;3.85;;
72261;SDS011;60173;52.112;8.648;2023-07-08T04:53:11;5.20;;;3.08;;
72261;SDS011;60173;52.112;8.648;2023-07-08T04:55:42;5.82;;;3.40;;
72261;SDS011;60173;52.112;8.648;2023-07-08T04:58:11;10.82;;;3.65;;
72261;SDS011;60173;52.112;8.648;2023-07-08T05:00:37;5.63;;;3.20;;
72261;SDS011;60173;52.112;8.648;2023-07-08T05:03:03;5.38;;;3.30;;
72261;SDS011;60173;52.112;8.648;2023-07-08T05:05:30;4.25;;;3.30;;
72261;SDS011;60173;52.112;8.648;2023-07-08T05:07:57;5.10;;;3.00;;
72261;SDS011;60173;52.112;8.648;2023-07-08T05:10:23;4.22;;;2.83;;
72261;SDS011;60173;52.112;8.648;2023-07-08T05:12:50;4.70;;;3.22;;
72261;SDS011;60173;52.112;8.648;2023-07-08T05:15:16;6.63;;;3.17;;
72261;SDS011;60173;52.112;8.648;2023-07-08T05:17:43;4.43;;;3.45;;
72261;SDS011;60173;52.112;8.648;2023-07-08T05:20:11;5.00;;;3.13;;
72261;SDS011;60173;52.112;8.648;2023-07-08T05:22:40;5.63;;;2.78;;
72261;SDS011;60173;52.112;8.648;2023-07-08T05:25:06;4.43;;;2.85;;
72261;SDS011;60173;52.112;8.648;2023-07-08T05:27:33;4.30;;;3.03;;
72261;SDS011;60173;52.112;8.648;2023-07-08T05:30:00;5.75;;;3.45;;
72261;SDS011;60173;52.112;8.648;2023-07-08T05:32:27;6.97;;;3.40;;
72261;SDS011;60173;52.112;8.648;2023-07-08T05:34:54;6.85;;;3.75;;
72261;SDS011;60173;52.112;8.648;2023-07-08T05:37:20;7.30;;;3.53;;
72261;SDS011;60173;52.112;8.648;2023-07-08T05:39:47;6.68;;;3.42;;
72261;SDS011;60173;52.112;8.648;2023-07-08T05:42:13;6.43;;;3.38;;
72261;SDS011;60173;52.112;8.648;2023-07-08T05:44:39;6.38;;;3.38;;
72261;SDS011;60173;52.112;8.648;2023-07-08T05:47:06;4.65;;;2.92;;
72261;SDS011;60173;52.112;8.648;2023-07-08T05:49:32;5.03;;;3.08;;
72261;SDS011;60173;52.112;8.648;2023-07-08T05:51:59;4.63;;;3.15;;
72261;SDS011;60173;52.112;8.648;2023-07-08T05:54:25;4.25;;;2.80;;
72261;SDS011;60173;52.112;8.648;2023-07-08T05:56:52;6.28;;;3.63;;
72261;SDS011;60173;52.112;8.648;2023-07-08T05:59:19;5.93;;;3.08;;
72261;SDS011;60173;52.112;8.648;2023-07-08T06:01:45;6.30;;;3.00;;
72261;SDS011;60173;52.112;8.648;2023-07-08T06:04:12;4.35;;;3.10;;
72261;SDS011;60173;52.112;8.648;2023-07-08T06:06:38;6.68;;;2.97;;
72261;SDS011;60173;52.112;8.648;2023-07-08T06:09:04;4.75;;;2.60;;
72261;SDS011;60173;52.112;8.648;2023-07-08T06:11:31;3.97;;;2.80;;
72261;SDS011;60173;52.112;8.648;2023-07-08T06:13:58;5.63;;;3.00;;
72261;SDS011;60173;52.112;8.648;2023-07-08T06:16:24;4.85;;;3.05;;
72261;SDS011;60173;52.112;8.648;2023-07-08T06:19:05;5.65;;;3.03;;
72261;SDS011;60173;52.112;8.648;2023-07-08T06:21:32;5.63;;;3.40;;
72261;SDS011;60173;52.112;8.648;2023-07-08T06:23:59;8.27;;;3.20;;
72261;SDS011;60173;52.112;8.648;2023-07-08T06:26:25;5.30;;;3.25;;
72261;SDS011;60173;52.112;8.648;2023-07-08T06:28:51;6.28;;;3.25;;
72261;SDS011;60173;52.112;8.648;2023-07-08T06:31:18;4.53;;;3.08;;
72261;SDS011;60173;52.112;8.648;2023-07-08T06:33:44;5.30;;;2.75;;
72261;SDS011;60173;52.112;8.648;2023-07-08T06:36:11;3.90;;;2.58;;
72261;SDS011;60173;52.112;8.648;2023-07-08T06:38:37;6.47;;;3.05;;
72261;SDS011;60173;52.112;8.648;2023-07-08T06:41:04;5.70;;;3.00;;
72261;SDS011;60173;52.112;8.648;2023-07-08T06:43:30;6.10;;;2.92;;
72261;SDS011;60173;52.112;8.648;2023-07-08T06:45:56;4.82;;;2.95;;
72261;SDS011;60173;52.112;8.648;2023-07-08T06:48:23;6.60;;;2.55;;
72261;SDS011;60173;52.112;8.648;2023-07-08T06:50:49;4.60;;;2.85;;
72261;SDS011;60173;52.112;8.648;2023-07-08T06:53:16;6.10;;;2.90;;
72261;SDS011;60173;52.112;8.648;2023-07-08T06:55:46;4.65;;;3.00;;
72261;SDS011;60173;52.112;8.648;2023-07-08T06:58:12;4.53;;;2.75;;
72261;SDS011;60173;52.112;8.648;2023-07-08T07:00:42;3.45;;;2.70;;
72261;SDS011;60173;52.112;8.648;2023-07-08T07:03:10;5.35;;;2.83;;
72261;SDS011;60173;52.112;8.648;2023-07-08T07:05:37;4.28;;;2.67;;
72261;SDS011;60173;52.112;8.648;2023-07-08T07:08:04;6.60;;;2.60;;
72261;SDS011;60173;52.112;8.648;2023-07-08T07:10:31;3.78;;;2.47;;
72261;SDS011;60173;52.112;8.648;2023-07-08T07:12:59;10.13;;;3.40;;
72261;SDS011;60173;52.112;8.648;2023-07-08T07:15:25;4.07;;;2.58;;
72261;SDS011;60173;52.112;8.648;2023-07-08T07:17:52;5.78;;;2.55;;
72261;SDS011;60173;52.112;8.648;2023-07-08T07:20:18;3.55;;;2.25;;
72261;SDS011;60173;52.112;8.648;2023-07-08T07:22:45;5.80;;;2.95;;
72261;SDS011;60173;52.112;8.648;2023-07-08T07:25:11;3.55;;;2.60;;
72261;SDS011;60173;52.112;8.648;2023-07-08T07:27:37;3.67;;;2.70;;
72261;SDS011;60173;52.112;8.648;2023-07-08T07:30:04;6.80;;;2.47;;
72261;SDS011;60173;52.112;8.648;2023-07-08T07:32:31;3.67;;;2.60;;
72261;SDS011;60173;52.112;8.648;2023-07-08T07:34:57;4.25;;;3.13;;
72261;SDS011;60173;52.112;8.648;2023-07-08T07:37:24;3.50;;;2.45;;
72261;SDS011;60173;52.112;8.648;2023-07-08T07:39:50;4.30;;;2.92;;
72261;SDS011;60173;52.112;8.648;2023-07-08T07:42:17;6.72;;;3.10;;
72261;SDS011;60173;52.112;8.648;2023-07-08T07:44:45;3.97;;;2.80;;
72261;SDS011;60173;52.112;8.648;2023-07-08T07:47:11;4.82;;;2.83;;
72261;SDS011;60173;52.112;8.648;2023-07-08T07:49:39;3.50;;;2.70;;
72261;SDS011;60173;52.112;8.648;2023-07-08T07:52:06;4.30;;;2.80;;
72261;SDS011;60173;52.112;8.648;2023-07-08T07:54:32;4.85;;;2.85;;
72261;SDS011;60173;52.112;8.648;2023-07-08T07:56:59;4.63;;;2.92;;
72261;SDS011;60173;52.112;8.648;2023-07-08T07:59:25;4.85;;;3.03;;
72261;SDS011;60173;52.112;8.648;2023-07-08T08:01:52;5.82;;;3.10;;
72261;SDS011;60173;52.112;8.648;2023-07-08T08:04:18;4.13;;;2.92;;
72261;SDS011;60173;52.112;8.648;2023-07-08T08:06:44;5.00;;;2.67;;
72261;SDS011;60173;52.112;8.648;2023-07-08T08:09:11;6.03;;;3.10;;
72261;SDS011;60173;52.112;8.648;2023-07-08T08:11:37;7.82;;;2.90;;
72261;SDS011;60173;52.112;8.648;2023-07-08T08:14:04;3.90;;;2.70;;
72261;SDS011;60173;52.112;8.648;2023-07-08T08:16:30;4.45;;;3.10;;
72261;SDS011;60173;52.112;8.648;2023-07-08T08:18:57;5.10;;;2.88;;
72261;SDS011;60173;52.112;8.648;2023-07-08T08:21:23;6.13;;;3.28;;
72261;SDS011;60173;52.112;8.648;2023-07-08T08:23:50;5.93;;;3.53;;
72261;SDS011;60173;52.112;8.648;2023-07-08T08:26:16;5.82;;;3.25;;
72261;SDS011;60173;52.112;8.648;2023-07-08T08:28:42;5.97;;;3.13;;
72261;SDS011;60173;52.112;8.648;2023-07-08T08:31:09;7.88;;;2.83;;
72261;SDS011;60173;52.112;8.648;2023-07-08T08:33:35;6.15;;;3.30;;
72261;SDS011;60173;52.112;8.648;2023-07-08T08:36:01;4.45;;;2.65;;
72261;SDS011;60173;52.112;8.648;2023-07-08T08:38:29;4.05;;;2.95;;
72261;SDS011;60173;52.112;8.648;2023-07-08T08:40:55;5.85;;;3.00;;
72261;SDS011;60173;52.112;8.648;2023-07-08T08:43:30;3.92;;;2.70;;
72261;SDS011;60173;52.112;8.648;2023-07-08T08:46:04;4.38;;;2.95;;
72261;SDS011;60173;52.112;8.648;2023-07-08T08:48:37;4.22;;;3.08;;
72261;SDS011;60173;52.112;8.648;2023-07-08T08:51:10;4.63;;;2.65;;
72261;SDS011;60173;52.112;8.648;2023-07-08T08:53:40;5.93;;;3.40;;
72261;SDS011;60173;52.112;8.648;2023-07-08T08:56:22;4.63;;;2.78;;
72261;SDS011;60173;52.112;8.648;2023-07-08T09:01:37;5.25;;;2.78;;
72261;SDS011;60173;52.112;8.648;2023-07-08T09:04:27;5.50;;;2.90;;
72261;SDS011;60173;52.112;8.648;2023-07-08T09:06:57;6.13;;;3.30;;
72261;SDS011;60173;52.112;8.648;2023-07-08T09:09:37;3.97;;;3.10;;
72261;SDS011;60173;52.112;8.648;2023-07-08T09:12:10;6.13;;;3.08;;
72261;SDS011;60173;52.112;8.648;2023-07-08T09:14:44;6.35;;;3.53;;
72261;SDS011;60173;52.112;8.648;2023-07-08T09:17:14;4.05;;;2.80;;
72261;SDS011;60173;52.112;8.648;2023-07-08T09:24:56;4.70;;;2.80;;
72261;SDS011;60173;52.112;8.648;2023-07-08T09:27:27;4.43;;;3.17;;
72261;SDS011;60173;52.112;8.648;2023-07-08T09:29:54;5.22;;;3.70;;
72261;SDS011;60173;52.112;8.648;2023-07-08T09:32:21;4.53;;;3.42;;
72261;SDS011;60173;52.112;8.648;2023-07-08T09:34:50;4.63;;;3.28;;
72261;SDS011;60173;52.112;8.648;2023-07-08T09:37:23;5.38;;;3.17;;
72261;SDS011;60173;52.112;8.648;2023-07-08T09:39:52;4.07;;;3.33;;
72261;SDS011;60173;52.112;8.648;2023-07-08T09:42:20;4.85;;;3.45;;
72261;SDS011;60173;52.112;8.648;2023-07-08T09:44:54;3.47;;;3.05;;
72261;SDS011;60173;52.112;8.648;2023-07-08T09:47:23;4.80;;;3.60;;
72261;SDS011;60173;52.112;8.648;2023-07-08T09:49:52;4.10;;;3.20;;
72261;SDS011;60173;52.112;8.648;2023-07-08T09:52:18;5.88;;;3.08;;
72261;SDS011;60173;52.112;8.648;2023-07-08T09:54:45;7.15;;;3.45;;
72261;SDS011;60173;52.112;8.648;2023-07-08T09:57:16;4.40;;;3.33;;
72261;SDS011;60173;52.112;8.648;2023-07-08T09:59:55;6.63;;;3.50;;
72261;SDS011;60173;52.112;8.648;2023-07-08T10:02:26;4.10;;;3.08;;
72261;SDS011;60173;52.112;8.648;2023-07-08T10:07:52;4.28;;;3.17;;
72261;SDS011;60173;52.112;8.648;2023-07-08T10:10:26;4.88;;;3.10;;
72261;SDS011;60173;52.112;8.648;2023-07-08T10:12:57;6.45;;;3.45;;
72261;SDS011;60173;52.112;8.648;2023-07-08T10:15:27;4.28;;;3.15;;
72261;SDS011;60173;52.112;8.648;2023-07-08T10:17:59;5.35;;;3.63;;
72261;SDS011;60173;52.112;8.648;2023-07-08T10:20:28;6.55;;;3.70;;
72261;SDS011;60173;52.112;8.648;2023-07-08T10:24:07;6.57;;;3.17;;
72261;SDS011;60173;52.112;8.648;2023-07-08T10:26:25;5.60;;;3.72;;
72261;SDS011;60173;52.112;8.648;2023-07-08T10:31:44;4.25;;;3.47;;
72261;SDS011;60173;52.112;8.648;2023-07-08T10:34:29;4.07;;;3.50;;
72261;SDS011;60173;52.112;8.648;2023-07-08T10:37:17;5.88;;;3.35;;
72261;SDS011;60173;52.112;8.648;2023-07-08T10:45:41;8.80;;;3.63;;
72261;SDS011;60173;52.112;8.648;2023-07-08T10:59:50;5.35;;;3.65;;
72261;SDS011;60173;52.112;8.648;2023-07-08T11:02:33;4.53;;;3.57;;
72261;SDS011;60173;52.112;8.648;2023-07-08T11:10:59;6.07;;;3.80;;
72261;SDS011;60173;52.112;8.648;2023-07-08T11:13:45;6.07;;;3.83;;
72261;SDS011;60173;52.112;8.648;2023-07-08T11:16:31;6.40;;;3.78;;
72261;SDS011;60173;52.112;8.648;2023-07-08T11:19:21;6.03;;;3.92;;
72261;SDS011;60173;52.112;8.648;2023-07-08T11:21:57;5.40;;;3.87;;
72261;SDS011;60173;52.112;8.648;2023-07-08T11:24:31;4.78;;;3.95;;
72261;SDS011;60173;52.112;8.648;2023-07-08T11:27:04;8.57;;;4.23;;
72261;SDS011;60173;52.112;8.648;2023-07-08T11:29:40;4.57;;;3.70;;
72261;SDS011;60173;52.112;8.648;2023-07-08T11:32:12;7.20;;;3.88;;
72261;SDS011;60173;52.112;8.648;2023-07-08T11:34:43;6.50;;;3.88;;
72261;SDS011;60173;52.112;8.648;2023-07-08T11:37:12;5.72;;;4.90;;
72261;SDS011;60173;52.112;8.648;2023-07-08T11:39:43;4.97;;;4.38;;
72261;SDS011;60173;52.112;8.648;2023-07-08T11:42:19;6.65;;;4.60;;
72261;SDS011;60173;52.112;8.648;2023-07-08T11:44:55;7.43;;;3.45;;
72261;SDS011;60173;52.112;8.648;2023-07-08T11:47:46;7.78;;;4.18;;
72261;SDS011;60173;52.112;8.648;2023-07-08T11:50:29;5.07;;;3.78;;
72261;SDS011;60173;52.112;8.648;2023-07-08T11:53:01;5.05;;;3.97;;
72261;SDS011;60173;52.112;8.648;2023-07-08T11:55:55;5.25;;;3.67;;
72261;SDS011;60173;52.112;8.648;2023-07-08T11:58:27;6.28;;;4.25;;
72261;SDS011;60173;52.112;8.648;2023-07-08T12:00:59;5.55;;;4.32;;
72261;SDS011;60173;52.112;8.648;2023-07-08T12:03:38;5.63;;;3.88;;
72261;SDS011;60173;52.112;8.648;2023-07-08T12:08:55;6.70;;;3.90;;
72261;SDS011;60173;52.112;8.648;2023-07-08T12:11:40;5.55;;;4.20;;
72261;SDS011;60173;52.112;8.648;2023-07-08T12:14:11;8.55;;;4.40;;
72261;SDS011;60173;52.112;8.648;2023-07-08T12:16:38;5.80;;;4.05;;
72261;SDS011;60173;52.112;8.648;2023-07-08T12:19:05;5.05;;;4.15;;
72261;SDS011;60173;52.112;8.648;2023-07-08T12:21:36;5.50;;;4.13;;
72261;SDS011;60173;52.112;8.648;2023-07-08T12:24:03;4.93;;;4.05;;
72261;SDS011;60173;52.112;8.648;2023-07-08T12:26:31;6.05;;;4.30;;
72261;SDS011;60173;52.112;8.648;2023-07-08T12:28:58;5.82;;;3.92;;
72261;SDS011;60173;52.112;8.648;2023-07-08T12:31:24;5.40;;;4.10;;
72261;SDS011;60173;52.112;8.648;2023-07-08T12:33:51;5.20;;;3.92;;
72261;SDS011;60173;52.112;8.648;2023-07-08T12:36:19;5.40;;;3.95;;
72261;SDS011;60173;52.112;8.648;2023-07-08T12:38:48;5.60;;;4.05;;
72261;SDS011;60173;52.112;8.648;2023-07-08T12:41:17;5.28;;;3.95;;
72261;SDS011;60173;52.112;8.648;2023-07-08T12:46:18;6.45;;;4.35;;
72261;SDS011;60173;52.112;8.648;2023-07-08T12:48:47;5.78;;;3.88;;
72261;SDS011;60173;52.112;8.648;2023-07-08T12:51:15;5.55;;;4.15;;
72261;SDS011;60173;52.112;8.648;2023-07-08T12:53:45;5.70;;;4.72;;
72261;SDS011;60173;52.112;8.648;2023-07-08T12:56:12;5.50;;;3.97;;
72261;SDS011;60173;52.112;8.648;2023-07-08T12:58:41;5.85;;;3.58;;
72261;SDS011;60173;52.112;8.648;2023-07-08T13:01:15;5.97;;;4.38;;
72261;SDS011;60173;52.112;8.648;2023-07-08T13:03:45;5.55;;;4.20;;
72261;SDS011;60173;52.112;8.648;2023-07-08T13:06:16;7.15;;;4.20;;
72261;SDS011;60173;52.112;8.648;2023-07-08T13:08:46;7.38;;;4.72;;
72261;SDS011;60173;52.112;8.648;2023-07-08T13:11:14;5.43;;;4.40;;
72261;SDS011;60173;52.112;8.648;2023-07-08T13:13:46;8.30;;;4.60;;
72261;SDS011;60173;52.112;8.648;2023-07-08T13:16:17;6.30;;;4.70;;
72261;SDS011;60173;52.112;8.648;2023-07-08T13:18:44;7.68;;;4.22;;
72261;SDS011;60173;52.112;8.648;2023-07-08T13:21:14;8.73;;;4.60;;
72261;SDS011;60173;52.112;8.648;2023-07-08T13:23:42;5.63;;;4.43;;
72261;SDS011;60173;52.112;8.648;2023-07-08T13:26:13;5.13;;;3.92;;
72261;SDS011;60173;52.112;8.648;2023-07-08T13:28:44;4.93;;;3.92;;
72261;SDS011;60173;52.112;8.648;2023-07-08T13:31:18;7.97;;;4.50;;
72261;SDS011;60173;52.112;8.648;2023-07-08T13:33:52;7.10;;;4.35;;
72261;SDS011;60173;52.112;8.648;2023-07-08T13:36:21;6.07;;;4.57;;
72261;SDS011;60173;52.112;8.648;2023-07-08T13:38:49;4.90;;;4.30;;
72261;SDS011;60173;52.112;8.648;2023-07-08T13:41:20;5.72;;;4.20;;
72261;SDS011;60173;52.112;8.648;2023-07-08T13:43:48;5.78;;;4.10;;
72261;SDS011;60173;52.112;8.648;2023-07-08T13:46:26;6.03;;;4.40;;
72261;SDS011;60173;52.112;8.648;2023-07-08T13:49:10;5.95;;;4.47;;
72261;SDS011;60173;52.112;8.648;2023-07-08T13:51:37;5.22;;;4.30;;
72261;SDS011;60173;52.112;8.648;2023-07-08T13:54:12;5.80;;;4.22;;
72261;SDS011;60173;52.112;8.648;2023-07-08T13:56:49;7.72;;;4.68;;
72261;SDS011;60173;52.112;8.648;2023-07-08T13:59:18;4.80;;;4.20;;
72261;SDS011;60173;52.112;8.648;2023-07-08T14:01:50;5.22;;;4.47;;
72261;SDS011;60173;52.112;8.648;2023-07-08T14:04:20;6.30;;;4.47;;
72261;SDS011;60173;52.112;8.648;2023-07-08T14:06:51;6.88;;;4.35;;
72261;SDS011;60173;52.112;8.648;2023-07-08T14:09:18;7.35;;;4.55;;
72261;SDS011;60173;52.112;8.648;2023-07-08T14:11:46;5.32;;;4.38;;
72261;SDS011;60173;52.112;8.648;2023-07-08T14:14:14;10.32;;;4.05;;
72261;SDS011;60173;52.112;8.648;2023-07-08T14:16:45;527.80;;;394.83;;
72261;SDS011;60173;52.112;8.648;2023-07-08T14:19:15;471.85;;;280.00;;
72261;SDS011;60173;52.112;8.648;2023-07-08T14:21:46;424.23;;;181.77;;
72261;SDS011;60173;52.112;8.648;2023-07-08T14:24:17;6.60;;;4.43;;
72261;SDS011;60173;52.112;8.648;2023-07-08T14:26:44;7.45;;;4.50;;
72261;SDS011;60173;52.112;8.648;2023-07-08T14:29:11;6.38;;;4.22;;
72261;SDS011;60173;52.112;8.648;2023-07-08T14:31:38;5.95;;;4.90;;
72261;SDS011;60173;52.112;8.648;2023-07-08T14:34:09;6.22;;;4.20;;
72261;SDS011;60173;52.112;8.648;2023-07-08T14:36:38;7.60;;;5.05;;
72261;SDS011;60173;52.112;8.648;2023-07-08T14:39:09;6.57;;;4.85;;
72261;SDS011;60173;52.112;8.648;2023-07-08T14:41:38;6.15;;;4.60;;
72261;SDS011;60173;52.112;8.648;2023-07-08T14:44:21;5.55;;;4.45;;
72261;SDS011;60173;52.112;8.648;2023-07-08T14:46:53;5.30;;;4.20;;
72261;SDS011;60173;52.112;8.648;2023-07-08T14:49:20;5.40;;;4.35;;
72261;SDS011;60173;52.112;8.648;2023-07-08T14:51:48;6.43;;;4.82;;
72261;SDS011;60173;52.112;8.648;2023-07-08T14:54:15;7.68;;;4.80;;
72261;SDS011;60173;52.112;8.648;2023-07-08T14:56:41;7.03;;;4.75;;
72261;SDS011;60173;52.112;8.648;2023-07-08T14:59:15;5.32;;;4.30;;
72261;SDS011;60173;52.112;8.648;2023-07-08T15:01:44;5.93;;;4.72;;
72261;SDS011;60173;52.112;8.648;2023-07-08T15:04:12;6.80;;;4.53;;
72261;SDS011;60173;52.112;8.648;2023-07-08T15:06:40;6.65;;;4.70;;
72261;SDS011;60173;52.112;8.648;2023-07-08T15:09:07;5.22;;;4.38;;
72261;SDS011;60173;52.112;8.648;2023-07-08T15:11:34;6.10;;;4.60;;
72261;SDS011;60173;52.112;8.648;2023-07-08T15:14:01;5.50;;;4.28;;
72261;SDS011;60173;52.112;8.648;2023-07-08T15:16:28;5.88;;;4.68;;
72261;SDS011;60173;52.112;8.648;2023-07-08T15:18:55;5.15;;;4.57;;
72261;SDS011;60173;52.112;8.648;2023-07-08T15:21:21;6.30;;;5.03;;
72261;SDS011;60173;52.112;8.648;2023-07-08T15:23:48;6.70;;;4.82;;
72261;SDS011;60173;52.112;8.648;2023-07-08T15:26:14;6.05;;;4.93;;
72261;SDS011;60173;52.112;8.648;2023-07-08T15:28:42;7.03;;;4.85;;
72261;SDS011;60173;52.112;8.648;2023-07-08T15:31:10;7.97;;;5.10;;
72261;SDS011;60173;52.112;8.648;2023-07-08T15:33:37;6.22;;;5.03;;
72261;SDS011;60173;52.112;8.648;2023-07-08T15:36:03;6.20;;;4.68;;
72261;SDS011;60173;52.112;8.648;2023-07-08T15:38:30;5.25;;;4.75;;
72261;SDS011;60173;52.112;8.648;2023-07-08T15:40:56;7.03;;;5.22;;
72261;SDS011;60173;52.112;8.648;2023-07-08T15:43:22;6.70;;;5.25;;
72261;SDS011;60173;52.112;8.648;2023-07-08T15:45:49;5.90;;;4.78;;